Ship Status Report: callsign BR3037

sailwx.info

Track history (hours):
 
Tides and Currents Weather Stations Pressure Air Temp Water Temp Dewpoint Dewpoint Depression Visibility Wind Speed Wind Dir Waves Ship Positions

Oceanographic research ship ()

Last reported at 2017-Jan-12 06:33 UTC. Time now 2017-Jan-18 18:08 UTC.
Position N 22°37' E 120°13'.

Length 39 m.

Type: Other ship. MMSI: 416926000.

Date/timePositionNaut miles runAvg speedWind from/ knotsBaromVisibWave heightAir tempDewpointWater temp
2017-Jan-12 06:33N 22°37' E 120°13'2 0.1
2017-Jan-11 06:32N 22°38' E 120°11'  
2017-Jan-07 02:05N 22°41' E 120°11'5 9.8
2017-Jan-07 01:33N 22°37' E 120°15'2 0.1
2017-Jan-06 09:29N 22°37' E 120°17'6 0.3
2017-Jan-05 08:33N 22°33' E 120°11'2 1.8
2017-Jan-05 07:29N 22°35' E 120°10'2 2.5
2017-Jan-05 06:33N 22°36' E 120°12'1 0.7
2017-Jan-05 05:33N 22°37' E 120°12'2 2.3
2017-Jan-05 04:31N 22°39' E 120°14'1 0.8
2017-Jan-05 03:29N 22°38' E 120°13'1 1.0
2017-Jan-05 02:29N 22°38' E 120°14'  
Track history (hours):
 
Tides and Currents Weather Stations Pressure Air Temp Water Temp Dewpoint Dewpoint Depression Visibility Wind Speed Wind Dir Waves Ship Positions

Oceanographic research ship ()

Last reported at 2017-Jan-12 06:33 UTC. Time now 2017-Jan-18 18:08 UTC.
Position N 22°37' E 120°13'.

Length 39 m.

Type: Other ship. MMSI: 416926000.

Date/timePositionNaut miles runAvg speedWind from/ knotsBaromVisibWave heightAir tempDewpointWater temp
2017-Jan-12 06:33N 22°37' E 120°13'2 0.1
2017-Jan-11 06:32N 22°38' E 120°11'  
2017-Jan-07 02:05N 22°41' E 120°11'5 9.8
2017-Jan-07 01:33N 22°37' E 120°15'2 0.1
2017-Jan-06 09:29N 22°37' E 120°17'6 0.3
2017-Jan-05 08:33N 22°33' E 120°11'2 1.8
2017-Jan-05 07:29N 22°35' E 120°10'2 2.5
2017-Jan-05 06:33N 22°36' E 120°12'1 0.7
2017-Jan-05 05:33N 22°37' E 120°12'2 2.3
2017-Jan-05 04:31N 22°39' E 120°14'1 0.8
2017-Jan-05 03:29N 22°38' E 120°13'1 1.0
2017-Jan-05 02:29N 22°38' E 120°14'  

Dump ship's entire track history